Time;durP1;ratioP1;P1;durP2;ratioP2;P2;SDS_P1;SDS_P2;PMS_P1;PMS_P2;Temp;Humidity;BMP_temperature;BMP_pressure;BME280_temperature;BME280_humidity;BME280_pressure;Samples;Min_cycle;Max_cycle;Signal;HPM_P1;HPM_P2
2021/01/07 00:02:02;;;;;;;21.55;16.00;;;;;;;1.15;75.16;94907.91;5028418;28;20038;-69
2021/01/07 00:04:27;;;;;;;26.77;17.15;;;;;;;0.83;76.30;94900.03;5028601;28;20030;-69
2021/01/07 00:06:52;;;;;;;27.17;16.33;;;;;;;0.79;76.53;94901.56;5010849;28;20037;-69
2021/01/07 00:09:17;;;;;;;24.67;16.40;;;;;;;0.67;76.22;94906.19;5028477;28;20021;-69
2021/01/07 00:11:43;;;;;;;24.00;16.25;;;;;;;0.94;75.99;94916.63;5030156;28;20068;-69
2021/01/07 00:14:09;;;;;;;25.20;16.63;;;;;;;1.04;76.01;94908.84;5028437;28;20053;-69
2021/01/07 00:16:35;;;;;;;25.42;16.38;;;;;;;1.05;75.66;94907.81;5028455;28;20030;-69
2021/01/07 00:19:01;;;;;;;21.58;15.80;;;;;;;0.91;75.66;94922.34;5028229;28;20067;-69
2021/01/07 00:21:26;;;;;;;24.73;17.17;;;;;;;0.83;75.65;94900.03;5028267;28;20029;-69
2021/01/07 00:23:51;;;;;;;25.08;16.83;;;;;;;0.98;75.60;94894.16;5030402;28;20297;-69
2021/01/07 00:26:17;;;;;;;23.33;15.75;;;;;;;0.55;76.33;94903.69;5028288;28;20030;-69
2021/01/07 00:28:42;;;;;;;23.25;15.85;;;;;;;1.19;76.46;94924.69;5027997;28;20047;-69
2021/01/07 00:31:07;;;;;;;25.23;16.77;;;;;;;1.10;75.48;94910.47;5028239;28;20034;-70
2021/01/07 00:33:32;;;;;;;24.98;17.15;;;;;;;0.92;76.08;94932.59;5031615;28;20072;-69
2021/01/07 00:35:58;;;;;;;21.25;15.65;;;;;;;0.64;77.12;94925.75;5033882;28;20533;-69
2021/01/07 00:38:23;;;;;;;24.48;16.48;;;;;;;0.77;77.41;94904.44;5031845;28;20050;-69
2021/01/07 00:40:48;;;;;;;26.17;16.58;;;;;;;0.73;77.32;94923.50;5031935;28;20034;-69
2021/01/07 00:43:14;;;;;;;25.85;16.88;;;;;;;0.39;78.48;94907.97;5013789;28;20038;-71
2021/01/07 00:45:39;;;;;;;25.52;16.60;;;;;;;0.59;77.91;94907.38;5031677;28;20038;-70
2021/01/07 00:48:05;;;;;;;24.08;16.67;;;;;;;0.78;77.60;94910.47;5033955;28;20029;-70
2021/01/07 00:50:30;;;;;;;21.90;16.75;;;;;;;1.01;76.88;94898.88;5031773;28;20034;-72
2021/01/07 00:52:55;;;;;;;26.30;16.23;;;;;;;0.48;77.78;94908.34;5031540;28;20041;-69
2021/01/07 00:55:21;;;;;;;22.05;16.23;;;;;;;0.51;78.66;94915.66;5031809;28;20450;-70
2021/01/07 00:57:46;;;;;;;26.85;16.30;;;;;;;-0.01;79.80;94911.69;5031427;28;20040;-71
2021/01/07 01:00:15;;;;;;;23.98;16.52;;;;;;;0.21;80.20;94931.84;5013716;28;20549;-71
2021/01/07 01:02:41;;;;;;;26.65;17.20;;;;;;;0.59;78.76;94930.16;5033606;28;20026;-69
2021/01/07 01:05:07;;;;;;;24.15;16.23;;;;;;;0.28;79.54;94937.69;5031511;28;20037;-68
2021/01/07 01:07:33;;;;;;;23.75;15.73;;;;;;;0.14;79.84;94929.41;5031634;28;20071;-69
2021/01/07 01:09:59;;;;;;;26.17;16.77;;;;;;;0.33;79.21;94929.88;5031272;28;20410;-70
2021/01/07 01:12:24;;;;;;;24.40;16.60;;;;;;;0.41;79.48;94934.69;5031772;28;20026;-72
2021/01/07 01:14:50;;;;;;;26.33;17.50;;;;;;;0.66;78.61;94933.38;5033408;28;20025;-69
2021/01/07 01:17:15;;;;;;;26.35;18.23;;;;;;;0.87;77.41;94945.63;5031463;28;20041;-70
2021/01/07 01:19:40;;;;;;;26.73;18.13;;;;;;;0.76;77.62;94943.94;5031024;28;20037;-70
2021/01/07 01:22:06;;;;;;;27.45;15.82;;;;;;;0.64;77.46;94932.84;5031002;28;20042;-70
2021/01/07 01:24:31;;;;;;;26.83;17.15;;;;;;;0.79;78.04;94943.47;5031235;28;20050;-71
2021/01/07 01:26:57;;;;;;;27.27;17.88;;;;;;;0.80;77.90;94945.03;5033309;28;20578;-70
2021/01/07 01:29:23;;;;;;;26.90;16.83;;;;;;;1.09;77.12;94950.81;5030974;28;20150;-72
2021/01/07 01:31:49;;;;;;;25.75;17.40;;;;;;;0.92;77.38;94945.69;5031038;28;20124;-70
2021/01/07 01:34:16;;;;;;;27.50;17.60;;;;;;;0.85;77.22;94937.22;5030933;28;20041;-70
2021/01/07 01:36:41;;;;;;;26.83;17.75;;;;;;;0.80;78.19;94965.97;5030925;28;20045;-70
2021/01/07 01:39:06;;;;;;;23.52;16.10;;;;;;;0.50;78.99;94946.28;5032725;28;20044;-70
2021/01/07 01:41:39;;;;;;;24.20;17.48;;;;;;;0.64;78.37;94944.09;5030695;28;20049;-70
2021/01/07 01:44:06;;;;;;;25.55;17.52;;;;;;;0.66;78.67;94954.31;5029930;28;20034;-71
2021/01/07 01:46:32;;;;;;;28.45;18.33;;;;;;;0.58;79.30;94949.53;5030923;28;20049;-70
2021/01/07 01:48:57;;;;;;;27.90;17.48;;;;;;;0.55;79.07;94929.06;5030596;28;20041;-70
2021/01/07 01:51:23;;;;;;;28.17;17.98;;;;;;;0.61;79.65;94947.19;5030648;28;20116;-70
2021/01/07 01:53:48;;;;;;;28.25;17.63;;;;;;;0.47;79.67;94952.03;5032742;28;20113;-70
2021/01/07 01:56:15;;;;;;;38.90;21.88;;;;;;;0.71;79.38;94939.44;5030600;28;20128;-71
2021/01/07 01:58:41;;;;;;;33.10;19.45;;;;;;;0.78;79.47;94942.66;5030087;28;20045;-71
2021/01/07 02:01:06;;;;;;;34.42;19.67;;;;;;;0.90;79.22;94937.28;5030660;28;20060;-71
2021/01/07 02:03:31;;;;;;;32.53;19.25;;;;;;;0.89;79.50;94938.31;5030298;28;20045;-70
2021/01/07 02:06:01;;;;;;;34.90;19.42;;;;;;;0.69;79.35;94954.63;5032341;28;20086;-72
2021/01/07 02:08:28;;;;;;;32.55;19.55;;;;;;;0.79;79.24;94917.28;5030273;28;20124;-69
2021/01/07 02:10:54;;;;;;;31.95;19.33;;;;;;;0.94;78.45;94948.84;5030527;28;20084;-70
2021/01/07 02:13:19;;;;;;;30.02;18.25;;;;;;;0.38;80.52;94926.53;5030245;28;20064;-71
2021/01/07 02:15:45;;;;;;;26.23;17.83;;;;;;;0.72;80.09;94937.63;5030238;28;20526;-71
2021/01/07 02:18:10;;;;;;;32.22;19.50;;;;;;;0.95;78.81;94944.38;5032252;28;20156;-70
2021/01/07 02:20:38;;;;;;;34.03;20.50;;;;;;;1.17;78.20;94950.34;5029861;28;20079;-70
2021/01/07 02:23:04;;;;;;;30.38;18.20;;;;;;;0.86;78.99;94946.66;5012674;28;20053;-70
2021/01/07 02:25:29;;;;;;;30.63;19.40;;;;;;;0.95;78.43;94945.19;5030232;28;20045;-71
2021/01/07 02:27:55;;;;;;;30.58;18.35;;;;;;;0.90;78.41;94939.09;5030106;28;20037;-70
2021/01/07 02:30:21;;;;;;;29.67;19.05;;;;;;;0.87;78.31;94943.03;5029432;28;20034;-71
2021/01/07 02:32:48;;;;;;;30.75;19.38;;;;;;;1.25;77.99;94949.09;5031762;28;20026;-70
2021/01/07 02:35:13;;;;;;;28.83;18.33;;;;;;;1.13;77.26;94948.50;5029876;28;20102;-70
2021/01/07 02:37:43;;;;;;;27.15;17.55;;;;;;;0.89;77.99;94922.59;5012083;28;20042;-70
2021/01/07 02:40:09;;;;;;;29.10;18.00;;;;;;;0.94;78.49;94940.97;5029502;28;20034;-71
2021/01/07 02:42:35;;;;;;;29.40;17.48;;;;;;;1.01;78.10;94952.03;5029529;28;20049;-70
2021/01/07 02:45:01;;;;;;;25.77;17.38;;;;;;;0.72;78.37;94930.56;5031639;28;20136;-71
2021/01/07 02:47:26;;;;;;;28.63;17.88;;;;;;;0.94;78.42;94945.44;5012030;28;20120;-68
2021/01/07 02:49:51;;;;;;;22.70;16.00;;;;;;;0.75;78.28;94934.50;5029427;28;20069;-68
2021/01/07 02:52:17;;;;;;;26.30;18.00;;;;;;;1.24;77.77;94931.81;5029310;28;20034;-68
2021/01/07 02:54:42;;;;;;;26.38;16.23;;;;;;;0.96;77.03;94932.88;5029279;28;20042;-69
2021/01/07 02:57:08;;;;;;;25.08;17.00;;;;;;;1.33;76.74;94926.88;5031426;28;20055;-70
2021/01/07 02:59:33;;;;;;;24.05;15.82;;;;;;;1.03;76.60;94941.34;5029297;28;20084;-68
2021/01/07 03:01:58;;;;;;;24.80;16.75;;;;;;;1.48;76.63;94945.34;5029420;28;20109;-69
2021/01/07 03:04:24;;;;;;;24.40;16.20;;;;;;;1.02;77.17;94929.25;5029358;28;20124;-69
2021/01/07 03:06:49;;;;;;;21.23;15.32;;;;;;;1.13;76.48;94930.16;5029326;28;20483;-69
2021/01/07 03:09:14;;;;;;;23.40;15.80;;;;;;;1.19;76.18;94937.00;5028940;28;20379;-69
2021/01/07 03:11:40;;;;;;;21.25;15.45;;;;;;;1.57;76.30;94943.84;5031032;28;20026;-69
2021/01/07 03:14:05;;;;;;;25.42;16.75;;;;;;;1.58;74.87;94932.31;5029255;28;20034;-68
2021/01/07 03:16:31;;;;;;;22.02;15.82;;;;;;;1.62;74.50;94940.47;5029375;28;20064;-69
2021/01/07 03:18:56;;;;;;;22.10;15.65;;;;;;;1.43;74.83;94924.34;5028670;28;20044;-69
2021/01/07 03:21:22;;;;;;;22.23;15.40;;;;;;;1.51;74.76;94929.13;5028889;28;20029;-69
2021/01/07 03:23:47;;;;;;;21.85;15.48;;;;;;;1.58;74.53;94928.91;5030604;28;20108;-71
2021/01/07 03:26:12;;;;;;;21.05;15.20;;;;;;;1.44;74.86;94925.94;5029013;28;20037;-68
2021/01/07 03:28:38;;;;;;;21.38;14.10;;;;;;;0.95;76.30;94932.09;5028544;28;20041;-69
2021/01/07 03:31:03;;;;;;;23.42;15.60;;;;;;;1.18;75.96;94924.97;5028875;28;20069;-68
2021/01/07 03:33:29;;;;;;;23.20;15.27;;;;;;;1.29;75.33;94930.03;5011071;28;20402;-68
2021/01/07 03:35:54;;;;;;;17.58;13.40;;;;;;;0.51;77.26;94921.72;5030851;28;20079;-69
2021/01/07 03:38:19;;;;;;;17.63;13.90;;;;;;;0.99;76.65;94938.41;5011005;28;20061;-69
2021/01/07 03:40:45;;;;;;;19.27;14.35;;;;;;;0.97;75.97;94945.75;5028731;28;20041;-69
2021/01/07 03:43:10;;;;;;;17.63;13.73;;;;;;;0.85;76.68;94949.53;5028565;28;20029;-69
2021/01/07 03:45:35;;;;;;;17.75;12.73;;;;;;;0.40;78.95;94950.63;5028786;28;20495;-69
2021/01/07 03:48:00;;;;;;;22.30;15.07;;;;;;;0.77;77.01;94940.31;5030641;28;20173;-68
2021/01/07 03:50:26;;;;;;;23.67;14.00;;;;;;;0.69;76.97;94944.13;5027980;28;20065;-69
2021/01/07 03:52:51;;;;;;;20.05;15.45;;;;;;;0.96;76.75;94948.59;5027383;28;20116;-69
2021/01/07 03:55:17;;;;;;;20.30;13.07;;;;;;;0.67;76.88;94935.75;5028493;28;20049;-69
2021/01/07 03:57:42;;;;;;;18.08;14.15;;;;;;;0.94;76.81;94956.69;5010672;28;20046;-69
2021/01/07 04:00:08;;;;;;;21.15;14.60;;;;;;;1.05;76.16;94941.88;5030306;28;20022;-69
2021/01/07 04:02:33;;;;;;;19.40;14.55;;;;;;;1.24;75.53;94942.28;5028319;28;20072;-70
2021/01/07 04:04:58;;;;;;;21.45;15.63;;;;;;;1.56;74.88;94947.50;5028559;28;20790;-70
2021/01/07 04:07:24;;;;;;;18.40;13.98;;;;;;;1.27;74.90;94933.91;5030301;28;20470;-69
2021/01/07 04:09:49;;;;;;;20.85;13.85;;;;;;;0.94;75.61;94940.19;5032212;28;20065;-69
2021/01/07 04:12:14;;;;;;;20.77;15.25;;;;;;;1.25;75.63;94936.78;5032337;28;20026;-69
2021/01/07 04:14:40;;;;;;;22.23;15.07;;;;;;;1.03;75.44;94941.34;5034432;28;20029;-69
2021/01/07 04:17:05;;;;;;;22.42;15.18;;;;;;;1.47;74.87;94951.63;5032676;28;20565;-70
2021/01/07 04:19:30;;;;;;;22.10;15.68;;;;;;;1.55;74.46;94938.06;5032277;28;20116;-70
2021/01/07 04:21:55;;;;;;;19.85;14.77;;;;;;;1.16;74.49;94937.50;5032158;28;20517;-69
2021/01/07 04:24:21;;;;;;;23.35;14.95;;;;;;;1.17;75.07;94947.72;5032258;28;20483;-69
2021/01/07 04:26:46;;;;;;;22.42;15.60;;;;;;;1.22;75.30;94939.91;5034211;28;20021;-70
2021/01/07 04:29:12;;;;;;;22.83;15.88;;;;;;;1.56;74.58;94950.91;5031927;28;20079;-70
2021/01/07 04:31:38;;;;;;;22.75;16.05;;;;;;;1.23;75.25;94961.69;5031744;28;20103;-68
2021/01/07 04:34:05;;;;;;;23.23;15.68;;;;;;;1.47;74.71;94955.03;5032011;28;20037;-68
2021/01/07 04:36:30;;;;;;;21.33;15.25;;;;;;;1.34;74.92;94947.63;5031973;28;20120;-69
2021/01/07 04:38:55;;;;;;;25.58;17.10;;;;;;;1.34;74.84;94958.09;5033625;28;20189;-68
2021/01/07 04:41:21;;;;;;;24.13;16.23;;;;;;;1.25;75.71;94957.75;5031702;28;20050;-69
2021/01/07 04:43:54;;;;;;;23.83;16.35;;;;;;;1.23;75.60;94954.59;5031872;28;20050;-69
2021/01/07 04:46:19;;;;;;;25.95;17.23;;;;;;;1.22;75.24;94946.97;5031966;28;20455;-70
2021/01/07 04:48:45;;;;;;;27.25;16.50;;;;;;;1.29;74.84;94945.75;5031547;28;20045;-69
2021/01/07 04:51:10;;;;;;;25.13;15.75;;;;;;;1.01;75.16;94936.31;5033564;28;20029;-70
2021/01/07 04:53:36;;;;;;;25.25;17.13;;;;;;;1.16;76.36;94961.88;5031557;28;20052;-69
2021/01/07 04:56:01;;;;;;;27.98;17.80;;;;;;;1.00;76.18;94945.22;5031418;28;20072;-69
2021/01/07 04:58:26;;;;;;;28.52;17.65;;;;;;;0.91;76.40;94959.78;5031281;28;20057;-70
2021/01/07 05:00:52;;;;;;;25.75;18.05;;;;;;;1.18;75.94;94964.25;5031855;28;20068;-69
2021/01/07 05:03:22;;;;;;;27.02;17.50;;;;;;;1.32;75.00;94964.63;5031400;28;20021;-68
2021/01/07 05:05:53;;;;;;;26.15;17.00;;;;;;;1.53;74.75;94948.00;5033431;28;20065;-69
2021/01/07 05:08:19;;;;;;;26.10;17.13;;;;;;;1.67;73.78;94958.84;5031320;28;20575;-69
2021/01/07 05:10:46;;;;;;;28.33;17.48;;;;;;;1.24;74.19;94958.81;5031494;28;20129;-68
2021/01/07 05:13:13;;;;;;;30.90;18.83;;;;;;;1.36;73.68;94942.91;5031177;28;20126;-69
2021/01/07 05:15:39;;;;;;;29.52;18.08;;;;;;;1.33;74.20;94966.19;5031280;28;20049;-68
2021/01/07 05:18:05;;;;;;;27.67;17.55;;;;;;;1.45;73.97;94972.84;5032208;28;20029;-68
2021/01/07 05:20:30;;;;;;;24.98;17.67;;;;;;;1.27;74.32;94952.25;5030875;28;20125;-69
2021/01/07 05:23:01;;;;;;;25.67;17.83;;;;;;;1.08;75.22;94959.72;5013240;28;20034;-69
2021/01/07 05:25:29;;;;;;;27.07;16.67;;;;;;;0.93;75.01;94946.47;5030988;28;20041;-70
2021/01/07 05:28:01;;;;;;;30.45;17.27;;;;;;;1.08;74.81;94953.69;5030836;28;20287;-69
2021/01/07 05:30:28;;;;;;;25.40;17.05;;;;;;;1.36;73.89;94961.25;5030494;28;20061;-69
2021/01/07 05:33:11;;;;;;;28.38;18.15;;;;;;;1.03;74.26;94960.44;5032666;28;20072;-68
2021/01/07 05:35:37;;;;;;;28.50;17.17;;;;;;;1.32;74.25;94960.16;5030812;28;20041;-69
2021/01/07 05:38:06;;;;;;;25.05;16.38;;;;;;;1.58;73.53;94966.38;5030812;28;20042;-70
2021/01/07 05:40:31;;;;;;;28.70;17.80;;;;;;;1.63;73.05;94963.81;5030669;28;20045;-69
2021/01/07 05:43:01;;;;;;;30.88;19.25;;;;;;;1.55;72.66;94949.34;5030755;28;20040;-69
2021/01/07 05:45:37;;;;;;;28.58;17.55;;;;;;;1.82;72.71;94959.75;5031004;28;20042;-68
2021/01/07 05:48:03;;;;;;;31.65;18.33;;;;;;;1.73;72.56;94955.22;5015264;28;20446;-69
2021/01/07 05:50:35;;;;;;;38.35;17.95;;;;;;;1.90;72.10;94965.56;5030401;28;20064;-69
2021/01/07 05:53:01;;;;;;;38.17;19.23;;;;;;;1.64;72.48;94896.41;5030503;28;20052;-69
2021/01/07 05:55:27;;;;;;;28.80;17.08;;;;;;;2.15;71.70;94959.66;5030559;28;20038;-69
2021/01/07 05:57:57;;;;;;;30.02;17.90;;;;;;;2.03;71.51;94971.13;5030236;28;20095;-70
2021/01/07 06:00:23;;;;;;;29.25;17.85;;;;;;;2.12;71.43;94963.59;5030619;28;20463;-69
2021/01/07 06:02:54;;;;;;;27.23;17.80;;;;;;;1.92;70.72;94951.16;5032322;28;20017;-69
2021/01/07 06:05:21;;;;;;;28.88;17.50;;;;;;;1.59;71.89;94957.50;5030540;28;20040;-69
2021/01/07 06:07:47;;;;;;;28.42;18.10;;;;;;;1.61;71.94;94954.63;5030434;28;20038;-71
2021/01/07 06:10:13;;;;;;;28.70;18.38;;;;;;;1.75;72.37;94971.50;5029937;28;20040;-69
2021/01/07 06:12:39;;;;;;;26.90;17.75;;;;;;;1.81;71.89;94965.25;5030050;28;20061;-69
2021/01/07 06:15:13;;;;;;;26.50;17.58;;;;;;;1.70;71.79;94963.59;5032309;28;20068;-71
2021/01/07 06:17:39;;;;;;;27.45;17.92;;;;;;;1.52;72.14;94967.41;5030612;28;20435;-68
2021/01/07 06:20:12;;;;;;;27.10;17.30;;;;;;;1.46;72.27;94976.25;5029955;28;20514;-68
2021/01/07 06:22:49;;;;;;;25.90;17.27;;;;;;;1.49;72.58;94979.19;5030038;28;20041;-69
2021/01/07 06:25:15;;;;;;;29.10;17.45;;;;;;;1.50;71.97;94965.03;5029940;28;20037;-68
2021/01/07 06:27:43;;;;;;;30.38;17.98;;;;;;;1.40;72.50;94946.59;5029802;28;20171;-69
2021/01/07 06:30:11;;;;;;;28.67;16.90;;;;;;;1.12;72.61;94970.47;5031060;28;20033;-68
2021/01/07 06:32:37;;;;;;;27.30;18.08;;;;;;;0.90;73.82;94971.31;5029418;28;20107;-70
2021/01/07 06:35:07;;;;;;;30.58;18.88;;;;;;;1.13;73.08;94949.28;5029678;28;20495;-69
2021/01/07 06:37:35;;;;;;;34.15;19.27;;;;;;;0.83;73.94;94967.31;5029825;28;20045;-69
2021/01/07 06:40:07;;;;;;;33.42;20.30;;;;;;;0.81;74.12;94959.69;5029512;28;20041;-69
2021/01/07 06:42:35;;;;;;;33.67;19.00;;;;;;;0.70;74.35;94965.88;5029512;28;20179;-69
2021/01/07 06:45:03;;;;;;;37.20;19.70;;;;;;;0.78;74.55;94971.47;5031776;28;20025;-69
2021/01/07 06:47:30;;;;;;;36.20;20.20;;;;;;;0.48;75.05;94969.31;5029801;28;20044;-70
2021/01/07 06:49:56;;;;;;;34.90;20.45;;;;;;;0.59;74.62;94969.41;5029320;28;20406;-69
2021/01/07 06:52:23;;;;;;;41.53;21.27;;;;;;;0.55;74.33;94956.03;5029317;28;20041;-70
2021/01/07 06:54:48;;;;;;;41.03;20.95;;;;;;;0.42;74.71;94972.13;5029238;28;20514;-69
2021/01/07 06:57:15;;;;;;;41.92;21.83;;;;;;;0.48;74.64;94964.06;5029474;28;20103;-69
2021/01/07 06:59:56;;;;;;;40.53;22.38;;;;;;;0.61;74.42;94972.56;5013234;28;20036;-69
2021/01/07 07:02:21;;;;;;;46.45;22.90;;;;;;;0.52;74.59;94972.22;5028970;28;20037;-69
2021/01/07 07:04:47;;;;;;;43.60;21.88;;;;;;;0.11;75.46;94976.19;5029085;28;20050;-67
2021/01/07 07:07:15;;;;;;;40.42;21.73;;;;;;;0.12;75.90;94983.00;5029212;28;20087;-69
2021/01/07 07:09:41;;;;;;;43.67;22.48;;;;;;;0.39;75.30;94976.00;5028893;28;20048;-69
2021/01/07 07:12:07;;;;;;;44.10;21.92;;;;;;;0.41;75.15;94973.13;5030954;28;20037;-69
2021/01/07 07:14:33;;;;;;;40.15;21.48;;;;;;;0.53;75.03;94979.03;5029054;28;20099;-69
2021/01/07 07:17:09;;;;;;;41.55;22.13;;;;;;;0.32;75.76;94980.63;5029025;28;20647;-69
2021/01/07 07:19:37;;;;;;;36.03;19.42;;;;;;;0.43;75.80;94982.31;5028806;28;20128;-68
2021/01/07 07:22:03;;;;;;;37.58;21.52;;;;;;;0.73;75.25;94988.94;5028795;28;20045;-70
2021/01/07 07:24:39;;;;;;;37.08;20.77;;;;;;;0.94;74.59;94993.34;5029010;28;20105;-70
2021/01/07 07:27:10;;;;;;;38.38;20.50;;;;;;;1.14;74.11;94998.00;5030825;28;20021;-69
2021/01/07 07:29:38;;;;;;;36.17;20.65;;;;;;;1.32;73.71;95001.31;5028243;28;20049;-69
2021/01/07 07:32:19;;;;;;;37.30;19.85;;;;;;;1.49;73.38;94999.38;5028789;28;20069;-69
2021/01/07 07:34:48;;;;;;;31.20;18.80;;;;;;;1.65;72.37;94997.66;5028914;28;20694;-69
2021/01/07 07:37:41;;;;;;;32.00;18.92;;;;;;;1.87;71.69;94997.53;5028749;28;20132;-70
2021/01/07 07:40:07;;;;;;;34.50;20.15;;;;;;;1.98;71.51;94997.34;5025630;28;20057;-70
2021/01/07 07:42:33;;;;;;;30.17;18.20;;;;;;;2.06;70.99;94994.25;5027978;28;20399;-69
2021/01/07 07:44:59;;;;;;;35.45;19.23;;;;;;;2.22;69.96;95012.72;5030806;28;20026;-70
2021/01/07 07:47:24;;;;;;;31.83;18.52;;;;;;;2.32;69.98;95012.75;5029049;28;20044;-72
2021/01/07 07:49:56;;;;;;;28.40;18.00;;;;;;;2.34;69.02;95002.78;5028912;28;20053;-69
2021/01/07 07:52:22;;;;;;;27.08;17.17;;;;;;;2.47;68.79;95009.44;5028871;28;20038;-67
2021/01/07 07:55:02;;;;;;;21.40;16.70;;;;;;;2.55;68.97;95016.81;5028634;28;20053;-68
2021/01/07 07:57:27;;;;;;;27.25;17.98;;;;;;;2.63;68.37;95010.28;5028547;28;20036;-68
2021/01/07 07:59:52;;;;;;;275.77;27.33;;;;;;;2.73;68.50;95007.69;5030425;28;20120;-69
2021/01/07 08:02:19;;;;;;;59.30;19.17;;;;;;;2.75;67.98;95016.09;5010573;28;20034;-68
2021/01/07 08:04:44;;;;;;;37.05;17.17;;;;;;;2.75;67.88;95018.72;5028579;28;20539;-67
2021/01/07 08:07:09;;;;;;;32.65;17.17;;;;;;;2.88;67.82;95023.50;5028493;28;20130;-66
2021/01/07 08:09:34;;;;;;;35.80;18.23;;;;;;;2.88;67.46;95014.84;5028355;28;20029;-66
2021/01/07 08:12:00;;;;;;;27.17;17.23;;;;;;;3.05;67.05;95026.69;5030288;28;20030;-69
2021/01/07 08:14:28;;;;;;;27.50;16.67;;;;;;;3.11;67.01;95028.28;5028245;28;20037;-67
2021/01/07 08:16:58;;;;;;;27.10;17.02;;;;;;;3.19;66.53;95029.63;5028547;28;20042;-65
2021/01/07 08:19:31;;;;;;;23.50;15.68;;;;;;;3.24;66.82;95029.66;5026785;28;20061;-67
2021/01/07 08:21:56;;;;;;;25.20;17.58;;;;;;;3.19;66.13;95005.97;5028171;28;20034;-72
2021/01/07 08:24:24;;;;;;;24.55;17.10;;;;;;;3.38;66.03;95030.72;5027794;28;20026;-71
2021/01/07 08:27:00;;;;;;;24.88;17.23;;;;;;;3.41;65.67;95024.13;5030341;28;20097;-68
2021/01/07 08:29:27;;;;;;;24.27;16.77;;;;;;;3.38;66.03;95017.59;5028251;28;20041;-71
2021/01/07 08:31:53;;;;;;;26.65;16.92;;;;;;;3.46;65.32;95018.09;5010909;28;20183;-63
2021/01/07 08:34:19;;;;;;;24.58;16.90;;;;;;;3.55;65.31;95030.47;5028225;28;20033;-67
2021/01/07 08:36:45;;;;;;;27.08;17.67;;;;;;;3.64;64.89;95030.75;5028400;28;20427;-66
2021/01/07 08:39:14;;;;;;;23.92;17.10;;;;;;;3.60;65.33;95027.84;5012051;28;20181;-66
2021/01/07 08:41:43;;;;;;;23.60;16.92;;;;;;;3.76;65.03;95031.28;5028481;28;20050;-68
2021/01/07 08:44:08;;;;;;;29.02;17.63;;;;;;;3.86;64.55;95030.47;5028357;28;20030;-66
2021/01/07 08:46:39;;;;;;;27.23;17.83;;;;;;;3.91;64.84;95027.84;5028266;28;20040;-67
2021/01/07 08:49:09;;;;;;;24.75;16.85;;;;;;;4.06;64.57;95030.47;5028013;28;20048;-70
2021/01/07 08:51:46;;;;;;;24.92;16.95;;;;;;;4.20;63.94;95019.38;5027942;28;20045;-68
2021/01/07 08:54:12;;;;;;;21.63;16.50;;;;;;;4.26;63.89;95024.38;5032749;28;20026;-64
2021/01/07 08:56:40;;;;;;;21.95;17.13;;;;;;;4.31;63.96;95019.09;5032506;28;20099;-69
2021/01/07 08:59:33;;;;;;;24.77;16.58;;;;;;;4.44;63.20;95025.66;5030958;28;20513;-69
2021/01/07 09:02:17;;;;;;;24.73;16.38;;;;;;;4.36;62.69;95018.31;5031539;28;20041;-76
2021/01/07 09:04:46;;;;;;;27.70;16.85;;;;;;;4.50;62.74;95021.94;5031696;28;20030;-75
2021/01/07 09:07:14;;;;;;;19.13;16.08;;;;;;;4.53;62.07;95016.16;5013907;28;20125;-66
2021/01/07 09:09:46;;;;;;;22.63;16.70;;;;;;;4.59;62.46;95022.97;5013943;28;20586;-70
2021/01/07 09:12:27;;;;;;;26.13;19.05;;;;;;;4.60;62.48;95019.28;5031760;28;20026;-75
2021/01/07 09:15:23;;;;;;;28.67;19.23;;;;;;;4.61;62.13;95017.44;5033825;28;20064;-72
2021/01/07 09:17:55;;;;;;;31.30;19.25;;;;;;;4.57;62.33;95009.28;5032639;28;20033;-74
2021/01/07 09:20:33;;;;;;;30.05;20.00;;;;;;;4.66;63.17;95006.91;5032466;28;20048;-68
2021/01/07 09:23:07;;;;;;;25.75;17.65;;;;;;;4.64;61.44;94996.59;5031323;28;20052;-70
2021/01/07 09:25:33;;;;;;;23.35;17.75;;;;;;;4.70;62.96;95007.91;5031319;28;20044;-68
2021/01/07 09:27:58;;;;;;;26.42;18.95;;;;;;;4.82;62.11;95007.63;5031876;28;20034;-76
2021/01/07 09:30:25;;;;;;;20.88;16.65;;;;;;;4.84;61.58;95003.66;5013977;28;20466;-80
2021/01/07 09:32:50;;;;;;;21.77;15.63;;;;;;;4.96;61.43;95003.31;5016041;28;20375;-78
2021/01/07 09:35:15;;;;;;;23.77;17.52;;;;;;;5.02;60.75;94994.34;5014028;28;20124;-70
2021/01/07 09:37:41;;;;;;;23.70;17.25;;;;;;;4.97;60.27;94999.66;5014279;28;20034;-72
2021/01/07 09:40:07;;;;;;;20.45;16.30;;;;;;;4.99;60.60;94996.72;5032849;28;20483;-79
2021/01/07 09:42:33;;;;;;;28.55;18.88;;;;;;;4.97;61.01;95006.75;5031552;28;20383;-74
2021/01/07 09:44:59;;;;;;;21.83;17.20;;;;;;;4.81;60.96;94991.03;5016103;28;20047;-77
2021/01/07 09:47:25;;;;;;;22.27;15.63;;;;;;;4.50;60.60;94992.19;5031846;28;20033;-79
2021/01/07 09:49:50;;;;;;;23.42;16.92;;;;;;;4.71;61.64;95001.59;5031444;28;20036;-77
2021/01/07 09:52:16;;;;;;;21.70;16.27;;;;;;;4.24;61.81;94988.84;5031647;28;20063;-78
2021/01/07 09:54:41;;;;;;;24.85;17.65;;;;;;;4.58;62.51;95000.31;5031987;28;20045;-76
2021/01/07 09:57:07;;;;;;;22.05;17.33;;;;;;;3.74;62.40;94993.94;5033001;28;20029;-71
2021/01/07 09:59:33;;;;;;;19.77;16.05;;;;;;;3.38;63.84;94999.19;5032719;28;20048;-73
2021/01/07 10:02:06;;;;;;;21.83;17.17;;;;;;;3.12;65.28;95005.41;5030429;28;20092;-74
2021/01/07 10:04:32;;;;;;;23.30;17.25;;;;;;;3.47;65.23;94996.78;5029903;28;20030;-75
2021/01/07 10:06:58;;;;;;;24.10;17.42;;;;;;;3.73;65.40;94996.81;5030830;28;20046;-73
2021/01/07 10:09:24;;;;;;;22.45;16.33;;;;;;;2.94;65.65;94998.03;5031121;28;20102;-69
2021/01/07 10:11:51;;;;;;;22.33;16.05;;;;;;;2.17;67.99;94994.31;5032110;28;20033;-77
2021/01/07 10:14:17;;;;;;;23.13;17.50;;;;;;;2.41;68.39;95000.75;5031052;28;20060;-73
2021/01/07 10:16:50;;;;;;;25.67;18.25;;;;;;;2.79;68.03;94994.31;5030811;28;20570;-73
2021/01/07 10:19:16;;;;;;;22.45;16.92;;;;;;;2.53;68.08;94987.41;5030546;28;20026;-78
2021/01/07 10:21:46;;;;;;;24.58;16.92;;;;;;;2.14;68.67;95000.84;5031345;28;20053;-77
2021/01/07 10:24:12;;;;;;;23.20;17.02;;;;;;;2.28;68.47;94996.72;5033199;28;20111;-73
2021/01/07 10:26:37;;;;;;;22.02;16.63;;;;;;;1.80;70.37;94987.28;5013821;28;20564;-80
2021/01/07 10:29:03;;;;;;;27.58;18.85;;;;;;;2.45;68.68;94980.00;5029825;28;20045;-67
2021/01/07 10:31:28;;;;;;;25.85;17.88;;;;;;;3.22;68.34;94968.63;5029972;28;20045;-72
2021/01/07 10:33:54;;;;;;;22.90;17.33;;;;;;;3.17;65.42;94967.84;5030161;28;20037;-69
2021/01/07 10:36:19;;;;;;;27.13;17.70;;;;;;;3.71;65.37;94964.72;5029965;28;20032;-71
2021/01/07 10:38:46;;;;;;;24.35;16.45;;;;;;;3.57;64.94;94975.75;5031414;28;20466;-70
2021/01/07 10:41:13;;;;;;;20.58;16.00;;;;;;;3.89;63.87;94975.50;5029382;28;20052;-71
2021/01/07 10:43:39;;;;;;;21.70;16.33;;;;;;;3.90;64.33;94961.28;5028666;28;20057;-72
2021/01/07 10:46:05;;;;;;;20.67;15.77;;;;;;;4.26;62.94;94976.22;5029391;28;20043;-72
2021/01/07 10:48:34;;;;;;;19.92;16.27;;;;;;;3.47;62.95;94919.75;5029234;28;20098;-71
2021/01/07 10:51:02;;;;;;;21.40;15.73;;;;;;;3.66;63.49;94970.78;5031546;28;20033;-72
2021/01/07 10:53:30;;;;;;;21.38;17.02;;;;;;;3.59;63.92;94967.63;5029153;28;20042;-72
2021/01/07 10:56:04;;;;;;;22.17;16.17;;;;;;;3.97;63.00;94957.56;5011783;28;20605;-71
2021/01/07 10:58:36;;;;;;;22.02;16.60;;;;;;;3.11;65.49;94972.31;5011180;28;20141;-72
2021/01/07 11:01:13;;;;;;;18.02;14.48;;;;;;;2.78;65.26;94973.56;5029255;28;20116;-70
2021/01/07 11:04:01;;;;;;;19.58;15.05;;;;;;;3.54;65.26;94954.47;5029096;28;20049;-68
2021/01/07 11:06:31;;;;;;;17.17;14.10;;;;;;;3.88;63.65;94965.22;5029042;28;20064;-69
2021/01/07 11:09:03;;;;;;;16.80;12.15;;;;;;;2.40;66.90;94972.88;5030742;28;20021;-71
2021/01/07 11:11:35;;;;;;;17.08;14.73;;;;;;;2.75;66.77;94956.47;5010840;28;20037;-70
2021/01/07 11:14:07;;;;;;;20.27;15.80;;;;;;;3.22;66.34;94954.72;5028360;28;20030;-69
2021/01/07 11:16:46;;;;;;;19.73;14.95;;;;;;;3.03;65.38;94957.84;5027594;28;20511;-70
2021/01/07 11:19:16;;;;;;;18.10;14.43;;;;;;;2.13;68.53;94952.03;5029523;28;20501;-68
2021/01/07 11:21:45;;;;;;;19.83;14.88;;;;;;;2.57;66.81;94935.94;5029687;28;20475;-69
2021/01/07 11:24:11;;;;;;;20.60;15.40;;;;;;;2.79;66.81;94933.91;5032032;28;20446;-71
2021/01/07 11:26:38;;;;;;;14.88;12.60;;;;;;;2.40;67.22;94954.50;5029776;28;20049;-70